Time;durP1;ratioP1;P1;durP2;ratioP2;P2;SDS_P1;SDS_P2;PMS_P1;PMS_P2;Temp;Humidity;BMP_temperature;BMP_pressure;BME280_temperature;BME280_humidity;BME280_pressure;Samples;Min_cycle;Max_cycle;Signal;HPM_P1;HPM_P2
2021/05/02 00:00:25;;;;;;;4.58;2.25;;;;;;;14.36;64.08;95829.45;1793099;78;21512;-56
2021/05/02 00:02:52;;;;;;;8.65;2.50;;;;;;;14.42;63.69;95819.38;1802261;78;21068;-56
2021/05/02 00:05:22;;;;;;;6.28;2.55;;;;;;;14.43;63.71;95816.61;1803039;78;21484;-56
2021/05/02 00:07:50;;;;;;;9.08;2.83;;;;;;;14.44;63.50;95816.96;1812220;78;21108;-56
2021/05/02 00:10:19;;;;;;;5.80;2.62;;;;;;;14.46;63.46;95821.53;1792282;78;21111;-57
2021/05/02 00:12:47;;;;;;;7.67;2.60;;;;;;;14.49;63.39;95816.48;1829027;77;21425;-56
2021/05/02 00:15:19;;;;;;;8.73;2.50;;;;;;;14.51;63.30;95810.64;1801338;77;21180;-56
2021/05/02 00:17:47;;;;;;;6.50;2.30;;;;;;;14.53;63.20;95817.34;1799296;78;21616;-57
2021/05/02 00:20:18;;;;;;;5.85;2.35;;;;;;;14.53;63.07;95814.73;1827744;77;28042;-56
2021/05/02 00:22:48;;;;;;;8.73;2.80;;;;;;;14.54;63.00;95813.77;1812294;78;21549;-57
2021/05/02 00:25:20;;;;;;;5.05;2.33;;;;;;;14.55;62.95;95813.27;1791777;80;21359;-57
2021/05/02 00:27:47;;;;;;;6.72;2.40;;;;;;;14.59;63.14;95809.44;1830103;77;21158;-57
2021/05/02 00:30:19;;;;;;;4.85;2.25;;;;;;;14.63;62.92;95804.72;1794905;78;21576;-56
2021/05/02 00:32:48;;;;;;;9.88;2.60;;;;;;;14.63;62.89;95800.31;1808572;78;21099;-56
2021/05/02 00:35:19;;;;;;;8.15;3.00;;;;;;;14.56;62.96;95804.48;1820086;78;21533;-56
2021/05/02 00:37:46;;;;;;;5.35;3.05;;;;;;;14.47;63.26;95799.70;1827628;78;21535;-56
2021/05/02 00:40:31;;;;;;;11.53;6.80;;;;;;;14.42;63.67;95794.08;1813825;78;21178;-55
2021/05/02 00:42:59;;;;;;;14.85;7.70;;;;;;;14.34;64.11;95788.34;1798446;78;21132;-57
2021/05/02 00:45:52;;;;;;;15.00;8.23;;;;;;;14.31;64.39;95789.94;1779538;80;21164;-56
2021/05/02 00:48:35;;;;;;;16.27;7.78;;;;;;;14.29;64.64;95780.14;1802306;78;21061;-56
2021/05/02 00:51:05;;;;;;;10.95;5.97;;;;;;;14.27;64.82;95775.55;1826428;77;21378;-56
2021/05/02 00:54:05;;;;;;;11.03;6.35;;;;;;;14.27;64.95;95774.23;1837799;77;21518;-56
2021/05/02 00:56:36;;;;;;;9.13;5.30;;;;;;;14.27;65.10;95785.98;1829182;77;22326;-57
2021/05/02 00:59:06;;;;;;;11.10;4.20;;;;;;;14.29;65.02;95784.06;1832567;77;21042;-57
2021/05/02 01:01:40;;;;;;;8.80;3.67;;;;;;;14.33;64.71;95790.60;1846298;77;21453;-56
2021/05/02 01:04:08;;;;;;;9.70;3.98;;;;;;;14.42;64.56;95786.25;1831324;77;21478;-57
2021/05/02 01:06:40;;;;;;;8.63;4.17;;;;;;;14.49;64.36;95767.73;1845083;77;21145;-57
2021/05/02 01:09:09;;;;;;;9.60;3.87;;;;;;;14.56;64.31;95756.69;1811763;77;21525;-57
2021/05/02 01:11:37;;;;;;;7.08;3.95;;;;;;;14.59;64.20;95742.00;1825930;77;21132;-57
2021/05/02 01:14:05;;;;;;;10.50;3.83;;;;;;;14.62;64.23;95742.56;1828147;77;22635;-59
2021/05/02 01:16:34;;;;;;;10.58;3.50;;;;;;;14.68;64.18;95745.84;1847470;77;21196;-58
2021/05/02 01:19:07;;;;;;;8.85;3.65;;;;;;;14.71;64.25;95741.62;1850646;77;21080;-57
2021/05/02 01:21:38;;;;;;;11.00;3.75;;;;;;;14.73;64.14;95733.13;1828128;77;21164;-57
2021/05/02 01:24:11;;;;;;;9.85;3.80;;;;;;;14.78;64.00;95725.34;1809693;77;21125;-56
2021/05/02 01:26:44;;;;;;;8.38;3.40;;;;;;;14.82;63.75;95719.66;1842073;77;21517;-56
2021/05/02 01:29:13;;;;;;;13.93;3.90;;;;;;;14.86;63.56;95709.70;1817141;77;21339;-56
2021/05/02 01:31:42;;;;;;;9.93;3.75;;;;;;;14.90;63.53;95701.41;1806644;77;21078;-56
2021/05/02 01:34:10;;;;;;;8.85;3.60;;;;;;;14.94;63.55;95700.60;1829049;77;21477;-56
2021/05/02 01:36:38;;;;;;;5.20;3.10;;;;;;;14.97;63.50;95703.40;1843463;77;21120;-56
2021/05/02 01:39:08;;;;;;;5.80;3.10;;;;;;;14.96;63.39;95702.56;1807609;79;21140;-56
2021/05/02 01:41:36;;;;;;;7.25;3.08;;;;;;;14.96;63.31;95705.17;1775607;80;21359;-56
2021/05/02 01:44:05;;;;;;;7.40;3.25;;;;;;;14.95;63.26;95699.64;1777949;80;21493;-55
2021/05/02 01:46:37;;;;;;;7.95;3.15;;;;;;;14.94;63.38;95694.57;1775569;80;21064;-56
2021/05/02 01:49:08;;;;;;;7.47;3.08;;;;;;;14.93;63.33;95693.73;1767686;80;21096;-57
2021/05/02 01:51:37;;;;;;;10.13;3.40;;;;;;;14.95;63.43;95694.87;1710634;82;21134;-57
2021/05/02 01:54:05;;;;;;;9.48;3.77;;;;;;;14.97;63.67;95696.88;1716037;82;22093;-56
2021/05/02 01:56:34;;;;;;;6.65;3.80;;;;;;;14.99;63.78;95697.52;1725040;82;21093;-57
2021/05/02 01:59:03;;;;;;;8.25;3.92;;;;;;;14.99;63.63;95689.19;1727646;82;21074;-58
2021/05/02 02:01:32;;;;;;;9.08;4.08;;;;;;;15.01;63.74;95695.06;1727171;82;21122;-57
2021/05/02 02:04:05;;;;;;;9.80;4.40;;;;;;;15.05;63.25;95686.45;1728466;82;21066;-56
2021/05/02 02:06:33;;;;;;;10.03;4.15;;;;;;;15.05;62.97;95679.42;1730771;82;21210;-56
2021/05/02 02:09:08;;;;;;;15.78;4.30;;;;;;;15.03;62.88;95669.63;1734654;82;21132;-58
2021/05/02 02:11:36;;;;;;;12.23;4.20;;;;;;;14.93;62.71;95665.00;1727902;82;21143;-56
2021/05/02 02:14:05;;;;;;;11.40;3.60;;;;;;;14.91;62.93;95664.34;1734696;82;21145;-56
2021/05/02 02:16:33;;;;;;;6.75;3.77;;;;;;;14.89;62.92;95652.75;1734617;82;21070;-58
2021/05/02 02:19:03;;;;;;;7.95;3.30;;;;;;;14.88;63.01;95656.82;1733813;82;21341;-60
2021/05/02 02:21:31;;;;;;;;;;;;;;;14.86;63.05;95662.20;1713166;82;21531;-61
2021/05/02 02:23:59;;;;;;;11.35;3.40;;;;;;;14.87;63.06;95667.77;1711683;82;20514;-64
2021/05/02 02:26:53;;;;;;;8.98;3.20;;;;;;;14.88;62.86;95669.88;1731301;82;21113;-63
2021/05/02 02:29:20;;;;;;;10.08;3.65;;;;;;;14.94;63.17;95675.79;1729384;82;21071;-61
2021/05/02 02:31:50;;;;;;;6.07;3.20;;;;;;;14.96;63.71;95670.41;1734875;82;21491;-62
2021/05/02 02:34:18;;;;;;;12.85;4.72;;;;;;;14.98;64.15;95673.67;1732029;82;21161;-59
2021/05/02 02:36:46;;;;;;;10.20;4.05;;;;;;;14.96;64.28;95672.52;1714978;82;21129;-59
2021/05/02 02:39:15;;;;;;;12.82;3.75;;;;;;;14.94;64.52;95677.09;1732708;82;21062;-59
2021/05/02 02:41:44;;;;;;;7.53;2.85;;;;;;;14.93;64.66;95672.02;1708106;82;21538;-58
2021/05/02 02:44:11;;;;;;;6.87;3.08;;;;;;;14.95;65.04;95668.77;1733246;82;21199;-59
2021/05/02 02:46:48;;;;;;;8.03;3.00;;;;;;;14.95;65.30;95671.37;1716865;82;21085;-58
2021/05/02 02:49:15;;;;;;;13.10;3.47;;;;;;;14.94;65.61;95664.53;1723776;82;21130;-59
2021/05/02 02:51:44;;;;;;;8.03;3.45;;;;;;;14.89;65.90;95663.70;1725219;81;21068;-60
2021/05/02 02:54:12;;;;;;;8.88;3.05;;;;;;;14.82;66.71;95659.59;1786058;79;21474;-59
2021/05/02 02:56:43;;;;;;;6.72;2.87;;;;;;;14.73;67.21;95664.44;1832945;77;27464;-59
2021/05/02 02:59:25;;;;;;;6.83;2.67;;;;;;;14.64;67.68;95661.48;1819576;77;21057;-58
2021/05/02 03:01:54;;;;;;;8.45;2.90;;;;;;;14.57;68.30;95665.14;1808446;79;21094;-58
2021/05/02 03:04:24;;;;;;;8.15;3.00;;;;;;;14.49;68.75;95658.57;1808501;79;21065;-58
2021/05/02 03:06:53;;;;;;;5.92;2.62;;;;;;;14.41;69.14;95656.76;1834105;77;21036;-58
2021/05/02 03:09:21;;;;;;;10.58;3.20;;;;;;;14.36;69.86;95656.41;1820828;78;22109;-58
2021/05/02 03:11:48;;;;;;;9.85;3.20;;;;;;;14.29;70.34;95661.89;1812492;77;21145;-58
2021/05/02 03:14:16;;;;;;;11.85;3.10;;;;;;;14.24;70.80;95662.34;1815951;78;21085;-60
2021/05/02 03:16:44;;;;;;;12.58;3.67;;;;;;;14.18;71.39;95667.70;1813864;79;21033;-57
2021/05/02 03:19:26;;;;;;;8.55;3.22;;;;;;;14.12;71.72;95660.48;1801166;78;21553;-59
2021/05/02 03:22:09;;;;;;;9.58;3.47;;;;;;;14.05;72.38;95658.16;1822194;78;23390;-58
2021/05/02 03:24:41;;;;;;;7.62;3.10;;;;;;;13.94;72.57;95655.80;1822171;78;21132;-59
2021/05/02 03:27:19;;;;;;;10.70;2.90;;;;;;;13.86;73.16;95655.73;1836051;78;21097;-58
2021/05/02 03:29:50;;;;;;;8.73;3.00;;;;;;;13.82;73.53;95664.84;1821152;78;21169;-59
2021/05/02 03:32:19;;;;;;;9.18;3.27;;;;;;;13.77;74.11;95659.58;1840234;78;21065;-58
2021/05/02 03:34:47;;;;;;;7.97;2.92;;;;;;;13.74;74.12;95658.58;1841256;77;21336;-59
2021/05/02 03:37:17;;;;;;;9.98;3.08;;;;;;;13.70;74.54;95662.94;1841252;78;21482;-58
2021/05/02 03:39:50;;;;;;;6.60;2.95;;;;;;;13.67;74.97;95665.84;1841421;78;21125;-58
2021/05/02 03:42:18;;;;;;;8.95;3.30;;;;;;;13.67;75.03;95665.38;1826370;78;21085;-58
2021/05/02 03:44:46;;;;;;;10.15;3.33;;;;;;;13.66;75.11;95661.11;1822348;78;21049;-58
2021/05/02 03:47:14;;;;;;;9.88;3.83;;;;;;;13.67;75.39;95663.23;1812236;78;21463;-57
2021/05/02 03:49:43;;;;;;;8.03;3.05;;;;;;;13.68;75.55;95659.17;1807572;78;21075;-58
2021/05/02 03:52:15;;;;;;;7.97;3.10;;;;;;;13.71;75.52;95665.88;1791740;79;21056;-59
2021/05/02 03:54:43;;;;;;;7.67;4.03;;;;;;;13.76;75.40;95666.25;1791713;80;21095;-60
2021/05/02 03:57:11;;;;;;;14.80;4.70;;;;;;;13.76;75.41;95659.73;1828691;78;21125;-58
2021/05/02 03:59:40;;;;;;;15.65;5.55;;;;;;;13.71;75.66;95666.70;1841648;77;21182;-59
2021/05/02 04:02:08;;;;;;;9.55;4.08;;;;;;;13.65;76.01;95660.80;1841447;78;21538;-59
2021/05/02 04:04:36;;;;;;;8.58;3.60;;;;;;;13.54;76.49;95657.92;1841525;78;21117;-59
2021/05/02 04:07:06;;;;;;;12.53;4.03;;;;;;;13.46;77.00;95650.53;1840677;77;21053;-58
2021/05/02 04:09:35;;;;;;;9.95;4.08;;;;;;;13.39;77.22;95655.02;1832818;78;21190;-59
2021/05/02 04:12:05;;;;;;;11.63;4.00;;;;;;;13.39;77.44;95653.72;1831534;78;21195;-59
2021/05/02 04:14:33;;;;;;;14.38;3.72;;;;;;;13.46;77.56;95652.64;1841490;78;21081;-58
2021/05/02 04:17:04;;;;;;;7.72;3.02;;;;;;;13.49;77.46;95648.93;1841400;78;21049;-58
2021/05/02 04:19:39;;;;;;;6.97;2.87;;;;;;;13.50;77.37;95648.75;1841519;78;21041;-58
2021/05/02 04:22:07;;;;;;;10.93;3.42;;;;;;;13.54;77.08;95648.80;1841073;77;21574;-58
2021/05/02 04:24:35;;;;;;;11.00;3.72;;;;;;;13.57;77.08;95642.48;1841608;77;21585;-58
2021/05/02 04:27:03;;;;;;;12.15;3.58;;;;;;;13.61;77.14;95648.53;1841278;77;21073;-58
2021/05/02 04:29:33;;;;;;;8.43;3.72;;;;;;;13.68;77.29;95638.81;1819570;77;21083;-58
2021/05/02 04:32:02;;;;;;;8.43;3.55;;;;;;;13.76;77.38;95641.48;1791831;80;21048;-58
2021/05/02 04:34:29;;;;;;;;;;;;;;;13.87;77.38;95639.94;1821862;78;21073;-58
2021/05/02 04:36:58;;;;;;;15.85;6.10;;;;;;;14.00;77.23;95633.03;1815528;78;21188;-58
2021/05/02 04:39:26;;;;;;;9.83;5.60;;;;;;;14.09;77.04;95634.70;1791897;79;21178;-58
2021/05/02 04:41:54;;;;;;;10.55;5.25;;;;;;;14.21;76.75;95629.23;1822626;77;21638;-58
2021/05/02 04:44:22;;;;;;;10.78;4.35;;;;;;;14.29;76.48;95622.28;1841182;78;21493;-58
2021/05/02 04:46:50;;;;;;;8.98;4.67;;;;;;;14.41;76.05;95622.83;1841644;78;21061;-59
2021/05/02 04:49:18;;;;;;;12.28;4.58;;;;;;;14.54;75.69;95622.41;1841527;78;21309;-59
2021/05/02 04:51:46;;;;;;;8.55;3.77;;;;;;;14.66;75.25;95614.64;1845277;77;21109;-59
2021/05/02 04:54:14;;;;;;;12.07;5.22;;;;;;;14.75;74.85;95617.28;1817179;77;21061;-59
2021/05/02 04:56:41;;;;;;;14.73;5.65;;;;;;;14.79;74.42;95618.62;1843409;77;21044;-59
2021/05/02 04:59:09;;;;;;;9.98;4.78;;;;;;;14.75;74.05;95618.59;1847308;77;21108;-59
2021/05/02 05:01:38;;;;;;;6.85;4.47;;;;;;;14.65;74.22;95612.19;1847279;77;21398;-58
2021/05/02 05:04:06;;;;;;;11.45;5.08;;;;;;;14.62;74.30;95609.42;1847098;77;21580;-59
2021/05/02 05:06:36;;;;;;;14.60;8.80;;;;;;;14.63;74.40;95605.00;1847376;77;21560;-59
2021/05/02 05:09:08;;;;;;;11.45;5.08;;;;;;;14.69;74.19;95604.39;1846363;77;21153;-59
2021/05/02 05:11:37;;;;;;;8.25;4.30;;;;;;;14.73;73.81;95607.80;1836660;77;21544;-59
2021/05/02 05:14:05;;;;;;;10.30;4.12;;;;;;;14.73;73.64;95600.47;1825245;78;22408;-59
2021/05/02 05:16:33;;;;;;;7.12;3.42;;;;;;;14.73;73.38;95592.63;1817209;77;21502;-59
2021/05/02 05:19:02;;;;;;;7.97;3.87;;;;;;;14.75;73.34;95593.78;1814171;79;26322;-59
2021/05/02 05:21:29;;;;;;;9.80;4.47;;;;;;;14.75;73.60;95589.87;1814120;79;21118;-58
2021/05/02 05:23:57;;;;;;;12.10;4.40;;;;;;;14.74;73.60;95585.14;1814000;79;21102;-60
2021/05/02 05:26:25;;;;;;;12.35;4.00;;;;;;;14.75;73.80;95583.34;1834210;77;21198;-60
2021/05/02 05:28:53;;;;;;;6.97;3.70;;;;;;;14.76;73.52;95584.48;1846944;77;21056;-60
2021/05/02 05:31:21;;;;;;;6.60;3.20;;;;;;;14.78;73.50;95586.45;1836241;77;21074;-60
2021/05/02 05:33:48;;;;;;;9.08;3.67;;;;;;;14.79;73.56;95584.67;1814211;77;21118;-61
2021/05/02 05:36:17;;;;;;;8.18;3.55;;;;;;;14.76;73.60;95587.09;1814001;79;21136;-58
2021/05/02 05:38:45;;;;;;;9.30;3.85;;;;;;;14.71;73.73;95589.38;1813940;79;21371;-58
2021/05/02 05:41:14;;;;;;;8.98;3.77;;;;;;;14.64;74.04;95583.16;1822380;77;27744;-59
2021/05/02 05:43:41;;;;;;;7.67;3.67;;;;;;;14.61;74.38;95579.06;1847208;77;21119;-58
2021/05/02 05:46:13;;;;;;;11.57;4.08;;;;;;;14.70;74.26;95573.36;1845107;77;21053;-58
2021/05/02 05:48:41;;;;;;;10.03;4.28;;;;;;;14.81;74.04;95570.95;1832168;77;21021;-59
2021/05/02 05:51:09;;;;;;;12.58;3.90;;;;;;;14.89;73.75;95570.98;1845472;77;21173;-59
2021/05/02 05:53:38;;;;;;;10.13;3.92;;;;;;;14.97;73.43;95569.69;1841371;78;21120;-60
2021/05/02 05:56:06;;;;;;;7.65;3.70;;;;;;;15.04;73.15;95570.67;1831902;77;21136;-60
2021/05/02 05:58:34;;;;;;;10.25;3.35;;;;;;;15.12;72.79;95570.38;1827100;78;21033;-60
2021/05/02 06:01:03;;;;;;;13.32;3.52;;;;;;;15.17;72.55;95573.31;1841499;78;21030;-60
2021/05/02 06:03:32;;;;;;;9.48;3.80;;;;;;;15.18;72.37;95570.55;1841336;78;21356;-60
2021/05/02 06:06:00;;;;;;;9.07;3.20;;;;;;;15.18;71.99;95569.23;1841524;77;21061;-60
2021/05/02 06:08:27;;;;;;;7.72;3.87;;;;;;;15.17;72.09;95570.20;1840572;78;21514;-60
2021/05/02 06:10:56;;;;;;;9.78;3.72;;;;;;;15.22;72.52;95572.34;1837537;77;21184;-60
2021/05/02 06:13:23;;;;;;;10.95;2.95;;;;;;;15.33;72.02;95565.95;1822345;78;21032;-60
2021/05/02 06:15:51;;;;;;;14.90;3.50;;;;;;;15.39;71.39;95564.81;1822273;78;21193;-60
2021/05/02 06:18:19;;;;;;;10.40;4.20;;;;;;;15.44;71.06;95565.17;1822484;77;21112;-60
2021/05/02 06:20:47;;;;;;;10.78;3.25;;;;;;;15.51;71.04;95570.56;1822139;78;21101;-59
2021/05/02 06:23:14;;;;;;;9.13;3.47;;;;;;;15.60;70.22;95572.67;1822249;77;21450;-59
2021/05/02 06:25:42;;;;;;;9.55;4.20;;;;;;;15.66;70.20;95570.71;1823265;78;21634;-59
2021/05/02 06:28:10;;;;;;;12.80;3.65;;;;;;;15.74;70.36;95565.94;1836432;77;21592;-59
2021/05/02 06:30:38;;;;;;;9.85;3.70;;;;;;;15.78;70.41;95567.30;1840826;78;21574;-60
2021/05/02 06:33:07;;;;;;;6.22;3.25;;;;;;;15.88;70.36;95561.38;1840031;78;21117;-60
2021/05/02 06:35:35;;;;;;;9.68;3.83;;;;;;;16.01;70.24;95559.06;1821685;78;21390;-59
2021/05/02 06:38:04;;;;;;;9.38;3.58;;;;;;;16.13;70.05;95556.90;1791786;80;21500;-59
2021/05/02 06:40:34;;;;;;;7.70;4.08;;;;;;;16.27;70.02;95559.33;1798071;78;21193;-59
2021/05/02 06:43:01;;;;;;;9.78;3.75;;;;;;;16.41;69.82;95565.65;1841384;78;21818;-59
2021/05/02 06:45:30;;;;;;;12.30;3.42;;;;;;;16.54;69.48;95563.30;1841576;78;21450;-59
2021/05/02 06:47:58;;;;;;;13.98;3.58;;;;;;;16.71;69.12;95555.36;1834747;78;21145;-59
2021/05/02 06:50:26;;;;;;;11.90;3.85;;;;;;;16.87;68.54;95552.69;1837117;78;21132;-59
2021/05/02 06:52:54;;;;;;;8.38;3.42;;;;;;;17.07;68.08;95542.59;1847196;77;22126;-59
2021/05/02 06:55:23;;;;;;;12.88;4.17;;;;;;;17.29;67.27;95539.64;1850602;77;21054;-59
2021/05/02 06:57:51;;;;;;;11.83;3.67;;;;;;;17.52;66.78;95539.31;1828375;77;21533;-58
2021/05/02 07:00:20;;;;;;;9.78;3.77;;;;;;;17.72;66.12;95537.00;1826869;77;21116;-59
2021/05/02 07:02:48;;;;;;;10.78;4.17;;;;;;;17.87;65.20;95535.23;1826222;78;21052;-59
2021/05/02 07:05:15;;;;;;;8.68;3.25;;;;;;;17.98;64.86;95536.10;1826033;78;23601;-59
2021/05/02 07:07:43;;;;;;;9.63;3.67;;;;;;;18.07;64.16;95538.64;1827768;77;21481;-59
2021/05/02 07:10:11;;;;;;;9.23;3.90;;;;;;;18.14;63.85;95535.59;1826101;77;21205;-59
2021/05/02 07:12:39;;;;;;;11.15;3.92;;;;;;;18.15;63.07;95530.16;1850573;77;21124;-59
2021/05/02 07:15:09;;;;;;;8.48;3.42;;;;;;;18.10;62.93;95527.27;1850812;77;21132;-59
2021/05/02 07:17:38;;;;;;;8.18;3.72;;;;;;;18.08;62.97;95528.47;1850754;77;22323;-59
2021/05/02 07:20:09;;;;;;;7.05;3.33;;;;;;;18.00;63.31;95530.67;1850559;77;21156;-60
2021/05/02 07:22:37;;;;;;;8.53;3.55;;;;;;;17.82;63.38;95531.80;1828266;77;21545;-61
2021/05/02 07:25:06;;;;;;;112.32;65.52;;;;;;;17.50;64.46;95525.54;1822068;77;21050;-61
2021/05/02 07:27:34;;;;;;;100.75;73.55;;;;;;;17.26;64.82;95528.70;1849265;77;21106;-61
2021/05/02 07:30:03;;;;;;;21.97;9.73;;;;;;;17.01;64.86;95533.30;1850297;77;21242;-60
2021/05/02 07:32:31;;;;;;;15.08;6.55;;;;;;;16.81;65.28;95538.12;1849342;77;21057;-59
2021/05/02 07:35:00;;;;;;;9.00;3.72;;;;;;;16.63;66.70;95531.36;1818704;77;28111;-59
2021/05/02 07:37:27;;;;;;;6.95;2.90;;;;;;;16.51;66.99;95527.48;1817259;78;21538;-66
2021/05/02 07:39:55;;;;;;;7.90;3.05;;;;;;;16.37;66.35;95533.77;1820695;77;21168;-67
2021/05/02 07:42:31;;;;;;;6.10;2.77;;;;;;;16.23;67.29;95517.45;1813524;77;21442;-65
2021/05/02 07:44:58;;;;;;;7.10;2.95;;;;;;;16.13;67.53;95521.58;1832215;77;21537;-65
2021/05/02 07:47:26;;;;;;;9.33;3.33;;;;;;;16.00;67.90;95520.83;1822792;77;21583;-67
2021/05/02 07:49:54;;;;;;;8.50;4.35;;;;;;;15.87;68.37;95524.45;1836142;77;21041;-65
2021/05/02 07:52:22;;;;;;;7.92;3.72;;;;;;;15.77;68.93;95522.50;1806537;78;21076;-65
2021/05/02 07:54:50;;;;;;;10.90;3.98;;;;;;;15.75;69.47;95519.20;1797773;79;21225;-66
2021/05/02 07:57:18;;;;;;;4.83;3.10;;;;;;;15.74;69.87;95527.55;1797467;77;21564;-66
2021/05/02 07:59:46;;;;;;;5.75;3.10;;;;;;;15.74;69.92;95518.41;1797609;79;21151;-66
2021/05/02 08:02:13;;;;;;;7.92;3.27;;;;;;;15.71;70.10;95521.34;1797471;79;21068;-65
2021/05/02 08:04:42;;;;;;;5.65;2.90;;;;;;;15.69;70.17;95517.25;1799436;79;21064;-66
2021/05/02 08:07:10;;;;;;;8.40;3.12;;;;;;;15.65;70.01;95516.27;1800643;79;21592;-65
2021/05/02 08:09:37;;;;;;;5.50;3.00;;;;;;;15.62;70.21;95505.34;1797777;77;21867;-65
2021/05/02 08:12:08;;;;;;;7.10;3.15;;;;;;;15.60;70.40;95504.19;1793534;79;21167;-65
2021/05/02 08:14:36;;;;;;;9.00;3.95;;;;;;;15.65;70.71;95508.42;1797849;79;21602;-68
2021/05/02 08:17:04;;;;;;;33.70;23.92;;;;;;;15.70;71.57;95500.59;1797495;79;21021;-64
2021/05/02 08:19:32;;;;;;;9.68;4.08;;;;;;;15.80;71.30;95498.13;1799691;78;21453;-65
2021/05/02 08:22:02;;;;;;;10.48;3.70;;;;;;;15.88;70.23;95489.95;1800662;79;21083;-64
2021/05/02 08:24:31;;;;;;;9.15;2.65;;;;;;;15.95;69.43;95492.20;1796619;79;21493;-65
2021/05/02 08:26:58;;;;;;;13.93;6.08;;;;;;;16.11;68.97;95497.38;1796064;79;21144;-64
2021/05/02 08:29:26;;;;;;;11.97;4.12;;;;;;;16.31;68.37;95483.89;1797496;79;21112;-65
2021/05/02 08:31:54;;;;;;;9.05;3.62;;;;;;;16.53;67.70;95489.68;1797525;79;21342;-65
2021/05/02 08:34:22;;;;;;;9.90;3.70;;;;;;;16.85;67.23;95477.39;1797671;79;21473;-66
2021/05/02 08:36:51;;;;;;;9.53;3.47;;;;;;;17.23;66.45;95474.00;1797257;79;21064;-64
2021/05/02 08:39:19;;;;;;;7.35;3.50;;;;;;;17.62;65.30;95467.74;1791361;78;21127;-65
2021/05/02 08:41:47;;;;;;;9.08;3.58;;;;;;;17.97;64.25;95465.42;1796390;79;21108;-63
2021/05/02 08:44:17;;;;;;;8.08;3.62;;;;;;;18.29;63.57;95458.14;1797634;79;21399;-63
2021/05/02 08:46:45;;;;;;;6.58;3.30;;;;;;;18.58;61.79;95458.09;1797599;79;21140;-65
2021/05/02 08:49:13;;;;;;;8.33;3.62;;;;;;;18.83;61.34;95459.08;1797757;79;21084;-64
2021/05/02 08:51:41;;;;;;;13.23;4.20;;;;;;;19.12;61.08;95456.79;1803169;77;21069;-64
2021/05/02 08:54:09;;;;;;;9.63;4.72;;;;;;;19.41;61.13;95459.47;1826856;78;21427;-63
2021/05/02 08:56:37;;;;;;;11.50;6.35;;;;;;;19.69;60.69;95456.82;1825370;77;21362;-65
2021/05/02 08:59:07;;;;;;;9.15;5.85;;;;;;;19.97;59.51;95454.17;1827326;78;21087;-72
2021/05/02 09:01:35;;;;;;;16.80;9.10;;;;;;;20.42;58.74;95449.80;1822167;78;21038;-70
2021/05/02 09:04:07;;;;;;;9.03;4.63;;;;;;;20.81;58.31;95448.83;1820352;78;21065;-68
2021/05/02 09:06:36;;;;;;;15.23;6.30;;;;;;;21.24;56.99;95444.50;1841442;77;21160;-67
2021/05/02 09:09:10;;;;;;;12.07;5.40;;;;;;;21.67;56.21;95434.33;1837539;78;22262;-69
2021/05/02 09:11:47;;;;;;;9.33;4.85;;;;;;;22.11;55.53;95433.31;1826799;77;21541;-66
2021/05/02 09:14:24;;;;;;;9.43;4.28;;;;;;;22.37;54.39;95429.78;1825771;77;21132;-67
2021/05/02 09:17:11;;;;;;;10.75;6.83;;;;;;;22.47;53.54;95429.33;1786487;78;21051;-65
2021/05/02 09:19:47;;;;;;;12.43;5.17;;;;;;;22.45;53.11;95435.83;1834954;78;21105;-67
2021/05/02 09:22:22;;;;;;;9.83;6.30;;;;;;;22.31;53.20;95427.97;1843454;77;21186;-68
2021/05/02 09:28:53;;;;;;;9.23;3.98;;;;;;;22.01;53.27;95435.06;1713660;83;21655;-69
2021/05/02 09:31:42;;;;;;;6.85;3.83;;;;;;;21.86;53.75;95428.71;1879317;76;23078;-70
2021/05/02 09:34:29;;;;;;;10.08;3.55;;;;;;;21.81;53.93;95426.38;1850316;77;21556;-73
2021/05/02 09:37:11;;;;;;;7.83;3.80;;;;;;;21.85;53.37;95408.59;1792509;80;21210;-70
2021/05/02 09:40:06;;;;;;;6.35;4.08;;;;;;;21.94;52.45;95410.52;1786530;79;21541;-69
2021/05/02 09:42:36;;;;;;;10.48;6.50;;;;;;;22.10;51.97;95422.95;1750914;80;21172;-66
2021/05/02 09:45:21;;;;;;;93.62;67.82;;;;;;;22.34;51.49;95416.98;1776525;79;21180;-68
2021/05/02 09:48:56;;;;;;;8.85;5.62;;;;;;;22.86;50.79;95412.94;1846830;75;22771;-68
2021/05/02 09:51:39;;;;;;;6.47;3.47;;;;;;;22.92;49.24;95392.74;1818107;78;21029;-67
2021/05/02 09:54:27;;;;;;;5.62;3.42;;;;;;;22.81;48.20;95406.13;1819258;76;21057;-69
2021/05/02 09:57:02;;;;;;;6.10;3.33;;;;;;;22.59;49.38;95416.25;1786680;79;21299;-68
2021/05/02 09:59:58;;;;;;;6.37;3.08;;;;;;;22.64;50.14;95400.55;1887849;76;22132;-67
2021/05/02 10:02:28;;;;;;;7.55;3.25;;;;;;;22.65;50.01;95409.28;1759263;80;21568;-68
2021/05/02 10:04:58;;;;;;;8.38;3.22;;;;;;;22.68;49.71;95404.90;1757649;81;21373;-66
2021/05/02 10:07:28;;;;;;;6.03;3.40;;;;;;;22.65;49.30;95406.64;1822633;77;21559;-68
2021/05/02 10:09:57;;;;;;;9.85;3.98;;;;;;;22.59;49.74;95406.99;1820221;77;21017;-63
2021/05/02 10:12:24;;;;;;;4.95;2.80;;;;;;;22.55;50.09;95409.25;1810535;77;21180;-68
2021/05/02 10:15:12;;;;;;;11.35;3.27;;;;;;;22.54;50.01;95412.91;1747610;82;21104;-63
2021/05/02 10:17:40;;;;;;;84.58;71.20;;;;;;;22.56;50.13;95410.06;1743199;82;22197;-64
2021/05/02 10:20:13;;;;;;;17.80;11.83;;;;;;;22.63;49.78;95417.95;1722930;82;21162;-65
2021/05/02 10:22:41;;;;;;;18.65;9.13;;;;;;;22.69;49.04;95407.33;1687206;83;21267;-65
2021/05/02 10:25:11;;;;;;;8.33;3.95;;;;;;;22.66;48.40;95405.63;1687687;84;21171;-66
2021/05/02 10:27:47;;;;;;;6.60;3.55;;;;;;;22.60;48.31;95404.66;1686839;84;21159;-66
2021/05/02 10:30:29;;;;;;;8.45;4.45;;;;;;;22.41;47.90;95386.03;1698203;83;22274;-66
2021/05/02 10:33:07;;;;;;;7.25;3.50;;;;;;;22.19;49.17;95400.57;1672869;85;21233;-67
2021/05/02 10:35:53;;;;;;;3.90;2.75;;;;;;;22.02;49.86;95406.33;1693810;84;21423;-66
2021/05/02 10:39:04;;;;;;;3.75;2.60;;;;;;;22.03;50.20;95404.48;1873910;75;22686;-65
2021/05/02 10:41:38;;;;;;;3.70;2.02;;;;;;;21.98;48.85;95404.31;1799969;77;21713;-68
2021/05/02 10:44:14;;;;;;;13.05;10.53;;;;;;;21.78;49.64;95401.73;1822109;77;21608;-67
2021/05/02 10:46:53;;;;;;;2.92;2.20;;;;;;;21.71;50.66;95407.03;1817050;77;21588;-68
2021/05/02 10:49:33;;;;;;;1.70;1.10;;;;;;;21.83;49.97;95408.00;1813657;78;20986;-68
2021/05/02 10:52:31;;;;;;;1.55;0.95;;;;;;;21.96;50.07;95412.95;1814797;77;21109;-67
2021/05/02 10:55:11;;;;;;;2.47;1.62;;;;;;;22.25;49.76;95403.67;1766840;77;21187;-67
2021/05/02 10:57:38;;;;;;;2.80;1.65;;;;;;;22.54;49.03;95409.47;1816260;77;21189;-69
2021/05/02 11:00:09;;;;;;;3.30;0.83;;;;;;;22.63;48.55;95404.73;1823878;77;21140;-67
2021/05/02 11:02:41;;;;;;;2.25;0.90;;;;;;;22.73;47.82;95425.72;1816287;77;21097;-66
2021/05/02 11:05:14;;;;;;;5.55;2.50;;;;;;;22.73;46.38;95415.64;1817392;77;21064;-67
2021/05/02 11:07:49;;;;;;;1.60;1.10;;;;;;;22.63;47.97;95417.42;1811404;77;21125;-68
2021/05/02 11:10:18;;;;;;;1.62;1.05;;;;;;;22.64;48.02;95431.47;1765398;78;21442;-66
2021/05/02 11:12:46;;;;;;;2.27;1.47;;;;;;;22.60;47.55;95428.45;1812247;78;21073;-67
2021/05/02 11:15:33;;;;;;;2.25;1.50;;;;;;;22.47;48.36;95429.33;1750364;80;21142;-67
2021/05/02 11:18:02;;;;;;;3.83;1.80;;;;;;;22.51;48.05;95437.12;1770741;80;21238;-68
2021/05/02 11:20:51;;;;;;;4.53;1.20;;;;;;;22.40;48.42;95439.10;1767610;80;21112;-66
2021/05/02 11:23:39;;;;;;;5.20;2.02;;;;;;;22.48;49.39;95438.86;1814179;77;21466;-66
2021/05/02 11:26:06;;;;;;;3.92;1.85;;;;;;;22.55;48.56;95437.50;1702701;83;21155;-66
2021/05/02 11:28:46;;;;;;;4.25;1.90;;;;;;;22.40;49.89;95442.58;1785407;77;21069;-65
2021/05/02 11:31:12;;;;;;;5.00;2.12;;;;;;;22.57;48.45;95432.84;1767392;80;21240;-65
2021/05/02 11:33:40;;;;;;;4.90;2.37;;;;;;;22.55;48.56;95424.28;1821538;77;21161;-65
2021/05/02 11:36:10;;;;;;;5.12;2.30;;;;;;;22.45;48.47;95423.45;1773080;80;21080;-66
2021/05/02 11:38:41;;;;;;;8.93;2.67;;;;;;;22.35;48.17;95417.78;1765295;80;21243;-65
2021/05/02 11:41:10;;;;;;;6.90;2.17;;;;;;;22.07;48.78;95424.16;1745923;80;21091;-68
2021/05/02 11:43:40;;;;;;;9.45;2.70;;;;;;;21.94;48.50;95426.85;1752466;80;21140;-67
2021/05/02 11:46:16;;;;;;;9.90;2.37;;;;;;;21.80;48.87;95424.25;1750738;81;21153;-67
2021/05/02 11:48:48;;;;;;;7.92;2.83;;;;;;;21.69;48.88;95428.84;1760932;80;21268;-67
2021/05/02 11:51:23;;;;;;;10.35;2.90;;;;;;;21.69;49.69;95420.92;1740287;81;21506;-68
2021/05/02 11:53:56;;;;;;;10.95;3.27;;;;;;;21.85;48.80;95411.23;1751905;80;21157;-65